sensor_id;sensor_type;location;lat;lon;timestamp;P1;durP1;ratioP1;P2;durP2;ratioP2
79330;SDS011;68797;49.782;19.054;2023-04-15T00:00:57;1.75;;;1.17;;
79330;SDS011;68797;49.782;19.054;2023-04-15T00:03:25;1.42;;;1.00;;
79330;SDS011;68797;49.782;19.054;2023-04-15T00:05:53;1.85;;;0.95;;
79330;SDS011;68797;49.782;19.054;2023-04-15T00:08:19;1.08;;;0.75;;
79330;SDS011;68797;49.782;19.054;2023-04-15T00:10:46;0.88;;;0.82;;
79330;SDS011;68797;49.782;19.054;2023-04-15T00:13:12;1.20;;;1.10;;
79330;SDS011;68797;49.782;19.054;2023-04-15T00:15:39;1.30;;;0.73;;
79330;SDS011;68797;49.782;19.054;2023-04-15T00:18:08;1.67;;;1.33;;
79330;SDS011;68797;49.782;19.054;2023-04-15T00:20:35;1.90;;;1.30;;
79330;SDS011;68797;49.782;19.054;2023-04-15T00:23:03;1.02;;;0.95;;
79330;SDS011;68797;49.782;19.054;2023-04-15T00:25:30;3.13;;;1.08;;
79330;SDS011;68797;49.782;19.054;2023-04-15T00:27:56;2.28;;;1.13;;
79330;SDS011;68797;49.782;19.054;2023-04-15T00:30:23;2.55;;;1.13;;
79330;SDS011;68797;49.782;19.054;2023-04-15T00:32:51;2.22;;;1.15;;
79330;SDS011;68797;49.782;19.054;2023-04-15T00:35:22;2.13;;;1.30;;
79330;SDS011;68797;49.782;19.054;2023-04-15T00:37:50;1.35;;;1.08;;
79330;SDS011;68797;49.782;19.054;2023-04-15T00:40:17;2.20;;;1.27;;
79330;SDS011;68797;49.782;19.054;2023-04-15T00:42:45;2.65;;;1.40;;
79330;SDS011;68797;49.782;19.054;2023-04-15T00:45:13;2.17;;;1.10;;
79330;SDS011;68797;49.782;19.054;2023-04-15T00:47:40;1.98;;;1.25;;
79330;SDS011;68797;49.782;19.054;2023-04-15T00:50:09;1.30;;;1.20;;
79330;SDS011;68797;49.782;19.054;2023-04-15T00:52:36;2.03;;;1.30;;
79330;SDS011;68797;49.782;19.054;2023-04-15T00:55:04;2.08;;;1.15;;
79330;SDS011;68797;49.782;19.054;2023-04-15T00:57:32;2.67;;;1.33;;
79330;SDS011;68797;49.782;19.054;2023-04-15T01:00:04;2.85;;;1.52;;
79330;SDS011;68797;49.782;19.054;2023-04-15T01:02:34;4.90;;;2.53;;
79330;SDS011;68797;49.782;19.054;2023-04-15T01:05:04;2.03;;;1.58;;
79330;SDS011;68797;49.782;19.054;2023-04-15T01:07:33;2.03;;;1.50;;
79330;SDS011;68797;49.782;19.054;2023-04-15T01:10:03;3.33;;;1.75;;
79330;SDS011;68797;49.782;19.054;2023-04-15T01:12:29;2.70;;;1.60;;
79330;SDS011;68797;49.782;19.054;2023-04-15T01:15:00;2.03;;;1.45;;
79330;SDS011;68797;49.782;19.054;2023-04-15T01:17:29;1.65;;;1.40;;
79330;SDS011;68797;49.782;19.054;2023-04-15T01:19:56;2.85;;;1.38;;
79330;SDS011;68797;49.782;19.054;2023-04-15T01:22:25;3.20;;;1.80;;
79330;SDS011;68797;49.782;19.054;2023-04-15T01:25:08;2.35;;;1.30;;
79330;SDS011;68797;49.782;19.054;2023-04-15T01:27:40;2.20;;;1.40;;
79330;SDS011;68797;49.782;19.054;2023-04-15T01:30:07;1.95;;;1.52;;
79330;SDS011;68797;49.782;19.054;2023-04-15T01:32:35;1.15;;;1.08;;
79330;SDS011;68797;49.782;19.054;2023-04-15T01:35:23;1.65;;;1.35;;
79330;SDS011;68797;49.782;19.054;2023-04-15T01:37:53;2.47;;;1.25;;
79330;SDS011;68797;49.782;19.054;2023-04-15T01:40:23;2.95;;;0.85;;
79330;SDS011;68797;49.782;19.054;2023-04-15T01:42:52;1.98;;;1.27;;
79330;SDS011;68797;49.782;19.054;2023-04-15T01:45:20;1.95;;;1.15;;
79330;SDS011;68797;49.782;19.054;2023-04-15T01:47:49;1.90;;;1.33;;
79330;SDS011;68797;49.782;19.054;2023-04-15T01:50:18;1.65;;;1.05;;
79330;SDS011;68797;49.782;19.054;2023-04-15T01:52:46;1.83;;;1.15;;
79330;SDS011;68797;49.782;19.054;2023-04-15T01:55:14;1.98;;;1.30;;
79330;SDS011;68797;49.782;19.054;2023-04-15T01:57:45;1.38;;;1.15;;
79330;SDS011;68797;49.782;19.054;2023-04-15T02:00:13;2.15;;;1.20;;
79330;SDS011;68797;49.782;19.054;2023-04-15T02:02:43;1.92;;;1.10;;
79330;SDS011;68797;49.782;19.054;2023-04-15T02:05:12;1.65;;;1.27;;
79330;SDS011;68797;49.782;19.054;2023-04-15T02:07:41;1.13;;;1.05;;
79330;SDS011;68797;49.782;19.054;2023-04-15T02:10:10;1.70;;;0.85;;
79330;SDS011;68797;49.782;19.054;2023-04-15T02:12:40;1.20;;;1.10;;
79330;SDS011;68797;49.782;19.054;2023-04-15T02:15:08;1.48;;;1.10;;
79330;SDS011;68797;49.782;19.054;2023-04-15T02:17:37;1.70;;;1.20;;
79330;SDS011;68797;49.782;19.054;2023-04-15T02:20:05;1.13;;;1.02;;
79330;SDS011;68797;49.782;19.054;2023-04-15T02:22:37;2.00;;;1.30;;
79330;SDS011;68797;49.782;19.054;2023-04-15T02:25:07;2.40;;;1.17;;
79330;SDS011;68797;49.782;19.054;2023-04-15T02:27:36;1.67;;;1.25;;
79330;SDS011;68797;49.782;19.054;2023-04-15T02:30:06;1.38;;;1.17;;
79330;SDS011;68797;49.782;19.054;2023-04-15T02:32:38;1.85;;;1.02;;
79330;SDS011;68797;49.782;19.054;2023-04-15T02:35:13;1.75;;;1.10;;
79330;SDS011;68797;49.782;19.054;2023-04-15T02:37:41;1.42;;;1.08;;
79330;SDS011;68797;49.782;19.054;2023-04-15T02:40:12;2.13;;;1.23;;
79330;SDS011;68797;49.782;19.054;2023-04-15T02:45:14;1.95;;;1.10;;
79330;SDS011;68797;49.782;19.054;2023-04-15T02:47:43;1.58;;;1.23;;
79330;SDS011;68797;49.782;19.054;2023-04-15T02:50:13;2.95;;;1.52;;
79330;SDS011;68797;49.782;19.054;2023-04-15T02:52:43;3.42;;;1.50;;
79330;SDS011;68797;49.782;19.054;2023-04-15T02:55:12;1.88;;;1.25;;
79330;SDS011;68797;49.782;19.054;2023-04-15T02:57:40;2.05;;;1.10;;
79330;SDS011;68797;49.782;19.054;2023-04-15T03:00:10;1.42;;;1.10;;
79330;SDS011;68797;49.782;19.054;2023-04-15T03:05:13;2.92;;;1.10;;
79330;SDS011;68797;49.782;19.054;2023-04-15T03:07:47;1.52;;;0.98;;
79330;SDS011;68797;49.782;19.054;2023-04-15T03:10:17;1.65;;;1.20;;
79330;SDS011;68797;49.782;19.054;2023-04-15T03:12:47;1.13;;;1.02;;
79330;SDS011;68797;49.782;19.054;2023-04-15T03:15:19;1.17;;;0.98;;
79330;SDS011;68797;49.782;19.054;2023-04-15T03:17:52;1.63;;;1.10;;
79330;SDS011;68797;49.782;19.054;2023-04-15T03:20:20;2.13;;;1.10;;
79330;SDS011;68797;49.782;19.054;2023-04-15T03:22:50;1.27;;;1.00;;
79330;SDS011;68797;49.782;19.054;2023-04-15T03:25:20;2.90;;;1.80;;
79330;SDS011;68797;49.782;19.054;2023-04-15T03:27:48;1.77;;;1.40;;
79330;SDS011;68797;49.782;19.054;2023-04-15T03:30:17;6.07;;;1.77;;
79330;SDS011;68797;49.782;19.054;2023-04-15T03:32:46;1.65;;;1.50;;
79330;SDS011;68797;49.782;19.054;2023-04-15T03:35:14;3.85;;;1.98;;
79330;SDS011;68797;49.782;19.054;2023-04-15T03:37:42;3.70;;;1.50;;
79330;SDS011;68797;49.782;19.054;2023-04-15T03:40:10;3.30;;;1.65;;
79330;SDS011;68797;49.782;19.054;2023-04-15T03:42:39;1.65;;;1.20;;
79330;SDS011;68797;49.782;19.054;2023-04-15T03:45:08;2.05;;;1.33;;
79330;SDS011;68797;49.782;19.054;2023-04-15T03:47:37;2.80;;;1.73;;
79330;SDS011;68797;49.782;19.054;2023-04-15T03:50:06;1.55;;;1.40;;
79330;SDS011;68797;49.782;19.054;2023-04-15T03:52:36;1.70;;;1.38;;
79330;SDS011;68797;49.782;19.054;2023-04-15T03:55:04;1.90;;;1.35;;
79330;SDS011;68797;49.782;19.054;2023-04-15T03:57:32;2.20;;;1.42;;
79330;SDS011;68797;49.782;19.054;2023-04-15T04:00:04;1.52;;;1.00;;
79330;SDS011;68797;49.782;19.054;2023-04-15T04:02:43;2.67;;;1.15;;
79330;SDS011;68797;49.782;19.054;2023-04-15T04:05:13;1.27;;;1.05;;
79330;SDS011;68797;49.782;19.054;2023-04-15T04:07:41;2.25;;;1.50;;
79330;SDS011;68797;49.782;19.054;2023-04-15T04:10:09;1.55;;;1.00;;
79330;SDS011;68797;49.782;19.054;2023-04-15T04:12:37;0.98;;;0.98;;
79330;SDS011;68797;49.782;19.054;2023-04-15T04:15:06;1.55;;;1.10;;
79330;SDS011;68797;49.782;19.054;2023-04-15T04:17:35;2.15;;;1.40;;
79330;SDS011;68797;49.782;19.054;2023-04-15T04:20:02;1.42;;;1.00;;
79330;SDS011;68797;49.782;19.054;2023-04-15T04:22:36;2.20;;;1.00;;
79330;SDS011;68797;49.782;19.054;2023-04-15T04:25:08;1.48;;;1.23;;
79330;SDS011;68797;49.782;19.054;2023-04-15T04:27:37;1.27;;;1.17;;
79330;SDS011;68797;49.782;19.054;2023-04-15T04:30:06;1.25;;;1.15;;
79330;SDS011;68797;49.782;19.054;2023-04-15T04:32:34;2.08;;;1.25;;
79330;SDS011;68797;49.782;19.054;2023-04-15T04:37:30;2.13;;;1.50;;
79330;SDS011;68797;49.782;19.054;2023-04-15T04:40:01;3.33;;;1.88;;
79330;SDS011;68797;49.782;19.054;2023-04-15T04:42:29;5.30;;;2.20;;
79330;SDS011;68797;49.782;19.054;2023-04-15T04:44:58;5.03;;;2.13;;
79330;SDS011;68797;49.782;19.054;2023-04-15T04:47:26;5.05;;;2.45;;
79330;SDS011;68797;49.782;19.054;2023-04-15T04:49:54;6.38;;;2.63;;
79330;SDS011;68797;49.782;19.054;2023-04-15T04:52:22;5.95;;;2.55;;
79330;SDS011;68797;49.782;19.054;2023-04-15T04:54:50;5.55;;;2.65;;
79330;SDS011;68797;49.782;19.054;2023-04-15T04:57:18;7.63;;;3.05;;
79330;SDS011;68797;49.782;19.054;2023-04-15T04:59:46;5.30;;;3.10;;
79330;SDS011;68797;49.782;19.054;2023-04-15T05:02:14;7.30;;;3.13;;
79330;SDS011;68797;49.782;19.054;2023-04-15T05:04:42;5.97;;;3.50;;
79330;SDS011;68797;49.782;19.054;2023-04-15T05:07:09;7.20;;;4.00;;
79330;SDS011;68797;49.782;19.054;2023-04-15T05:09:37;11.23;;;4.13;;
79330;SDS011;68797;49.782;19.054;2023-04-15T05:12:05;7.32;;;3.35;;
79330;SDS011;68797;49.782;19.054;2023-04-15T05:14:35;7.18;;;4.20;;
79330;SDS011;68797;49.782;19.054;2023-04-15T05:17:05;8.00;;;4.18;;
79330;SDS011;68797;49.782;19.054;2023-04-15T05:19:34;6.72;;;3.15;;
79330;SDS011;68797;49.782;19.054;2023-04-15T05:22:02;5.47;;;3.08;;
79330;SDS011;68797;49.782;19.054;2023-04-15T05:24:30;8.55;;;3.95;;
79330;SDS011;68797;49.782;19.054;2023-04-15T05:26:58;8.32;;;3.88;;
79330;SDS011;68797;49.782;19.054;2023-04-15T05:29:28;7.03;;;3.15;;
79330;SDS011;68797;49.782;19.054;2023-04-15T05:31:56;7.90;;;4.53;;
79330;SDS011;68797;49.782;19.054;2023-04-15T05:34:24;7.43;;;4.30;;
79330;SDS011;68797;49.782;19.054;2023-04-15T05:36:52;8.27;;;4.35;;
79330;SDS011;68797;49.782;19.054;2023-04-15T05:39:20;9.55;;;4.55;;
79330;SDS011;68797;49.782;19.054;2023-04-15T05:41:48;6.25;;;3.10;;
79330;SDS011;68797;49.782;19.054;2023-04-15T05:44:17;7.43;;;3.50;;
79330;SDS011;68797;49.782;19.054;2023-04-15T05:46:44;5.88;;;2.78;;
79330;SDS011;68797;49.782;19.054;2023-04-15T05:49:13;5.65;;;3.25;;
79330;SDS011;68797;49.782;19.054;2023-04-15T05:51:41;6.38;;;3.25;;
79330;SDS011;68797;49.782;19.054;2023-04-15T05:54:08;6.45;;;3.63;;
79330;SDS011;68797;49.782;19.054;2023-04-15T05:56:37;5.40;;;3.08;;
79330;SDS011;68797;49.782;19.054;2023-04-15T05:59:05;5.22;;;2.67;;
79330;SDS011;68797;49.782;19.054;2023-04-15T06:01:34;4.32;;;2.75;;
79330;SDS011;68797;49.782;19.054;2023-04-15T06:04:03;6.07;;;3.05;;
79330;SDS011;68797;49.782;19.054;2023-04-15T06:06:31;5.63;;;2.67;;
79330;SDS011;68797;49.782;19.054;2023-04-15T06:09:03;6.20;;;2.92;;
79330;SDS011;68797;49.782;19.054;2023-04-15T06:11:32;5.97;;;3.20;;
79330;SDS011;68797;49.782;19.054;2023-04-15T06:14:02;5.55;;;2.83;;
79330;SDS011;68797;49.782;19.054;2023-04-15T06:16:30;6.20;;;2.75;;
79330;SDS011;68797;49.782;19.054;2023-04-15T06:18:59;4.20;;;2.85;;
79330;SDS011;68797;49.782;19.054;2023-04-15T06:21:27;4.22;;;2.45;;
79330;SDS011;68797;49.782;19.054;2023-04-15T06:23:57;2.83;;;2.10;;
79330;SDS011;68797;49.782;19.054;2023-04-15T06:26:26;4.40;;;2.20;;
79330;SDS011;68797;49.782;19.054;2023-04-15T06:28:55;1.92;;;1.55;;
79330;SDS011;68797;49.782;19.054;2023-04-15T06:31:23;3.80;;;1.70;;
79330;SDS011;68797;49.782;19.054;2023-04-15T06:33:51;1.42;;;1.30;;
79330;SDS011;68797;49.782;19.054;2023-04-15T06:38:48;2.30;;;1.40;;
79330;SDS011;68797;49.782;19.054;2023-04-15T06:41:17;2.03;;;1.40;;
79330;SDS011;68797;49.782;19.054;2023-04-15T06:43:45;1.58;;;1.20;;
79330;SDS011;68797;49.782;19.054;2023-04-15T06:46:15;2.03;;;1.38;;
79330;SDS011;68797;49.782;19.054;2023-04-15T06:48:43;1.38;;;1.10;;
79330;SDS011;68797;49.782;19.054;2023-04-15T06:51:11;1.10;;;1.00;;
79330;SDS011;68797;49.782;19.054;2023-04-15T06:53:42;1.55;;;1.40;;
79330;SDS011;68797;49.782;19.054;2023-04-15T06:56:10;1.63;;;1.08;;
79330;SDS011;68797;49.782;19.054;2023-04-15T06:58:38;2.10;;;1.45;;
79330;SDS011;68797;49.782;19.054;2023-04-15T07:01:06;1.30;;;1.20;;
79330;SDS011;68797;49.782;19.054;2023-04-15T07:03:34;1.63;;;1.30;;
79330;SDS011;68797;49.782;19.054;2023-04-15T07:06:02;2.65;;;1.50;;
79330;SDS011;68797;49.782;19.054;2023-04-15T07:08:33;2.33;;;1.63;;
79330;SDS011;68797;49.782;19.054;2023-04-15T07:11:03;1.83;;;1.50;;
79330;SDS011;68797;49.782;19.054;2023-04-15T07:13:34;2.38;;;1.48;;
79330;SDS011;68797;49.782;19.054;2023-04-15T07:16:02;2.58;;;1.60;;
79330;SDS011;68797;49.782;19.054;2023-04-15T07:18:34;2.92;;;1.45;;
79330;SDS011;68797;49.782;19.054;2023-04-15T07:21:03;2.05;;;1.70;;
79330;SDS011;68797;49.782;19.054;2023-04-15T07:23:34;1.70;;;1.45;;
79330;SDS011;68797;49.782;19.054;2023-04-15T07:26:02;3.63;;;1.83;;
79330;SDS011;68797;49.782;19.054;2023-04-15T07:28:30;1.73;;;1.33;;
79330;SDS011;68797;49.782;19.054;2023-04-15T07:31:01;2.47;;;1.75;;
79330;SDS011;68797;49.782;19.054;2023-04-15T07:33:29;2.20;;;1.10;;
79330;SDS011;68797;49.782;19.054;2023-04-15T07:35:57;1.52;;;1.15;;
79330;SDS011;68797;49.782;19.054;2023-04-15T07:38:25;1.83;;;1.30;;
79330;SDS011;68797;49.782;19.054;2023-04-15T07:40:54;2.22;;;1.40;;
79330;SDS011;68797;49.782;19.054;2023-04-15T07:43:24;2.05;;;1.40;;
79330;SDS011;68797;49.782;19.054;2023-04-15T07:45:52;2.30;;;1.48;;
79330;SDS011;68797;49.782;19.054;2023-04-15T07:48:20;2.42;;;1.70;;
79330;SDS011;68797;49.782;19.054;2023-04-15T07:50:48;1.63;;;1.27;;
79330;SDS011;68797;49.782;19.054;2023-04-15T07:53:16;2.90;;;1.52;;
79330;SDS011;68797;49.782;19.054;2023-04-15T07:55:44;2.65;;;1.70;;
79330;SDS011;68797;49.782;19.054;2023-04-15T07:58:12;3.47;;;1.75;;
79330;SDS011;68797;49.782;19.054;2023-04-15T08:00:41;2.17;;;1.60;;
79330;SDS011;68797;49.782;19.054;2023-04-15T08:03:10;3.03;;;1.70;;
79330;SDS011;68797;49.782;19.054;2023-04-15T08:05:38;2.28;;;1.70;;
79330;SDS011;68797;49.782;19.054;2023-04-15T08:08:06;3.58;;;1.73;;
79330;SDS011;68797;49.782;19.054;2023-04-15T08:10:34;2.35;;;1.80;;
79330;SDS011;68797;49.782;19.054;2023-04-15T08:13:02;1.92;;;1.55;;
79330;SDS011;68797;49.782;19.054;2023-04-15T08:15:30;2.28;;;1.95;;
79330;SDS011;68797;49.782;19.054;2023-04-15T08:18:00;2.40;;;1.73;;
79330;SDS011;68797;49.782;19.054;2023-04-15T08:20:28;2.40;;;1.90;;
79330;SDS011;68797;49.782;19.054;2023-04-15T08:22:56;6.13;;;2.13;;
79330;SDS011;68797;49.782;19.054;2023-04-15T08:25:24;2.70;;;1.90;;
79330;SDS011;68797;49.782;19.054;2023-04-15T08:27:56;2.67;;;1.90;;
79330;SDS011;68797;49.782;19.054;2023-04-15T08:30:26;2.95;;;1.65;;
79330;SDS011;68797;49.782;19.054;2023-04-15T08:32:54;1.88;;;1.48;;
79330;SDS011;68797;49.782;19.054;2023-04-15T08:35:23;3.53;;;2.13;;
79330;SDS011;68797;49.782;19.054;2023-04-15T08:37:51;1.83;;;1.60;;
79330;SDS011;68797;49.782;19.054;2023-04-15T08:40:19;2.40;;;2.00;;
79330;SDS011;68797;49.782;19.054;2023-04-15T08:42:52;2.03;;;1.70;;
79330;SDS011;68797;49.782;19.054;2023-04-15T08:45:24;2.25;;;1.77;;
79330;SDS011;68797;49.782;19.054;2023-04-15T08:47:53;3.28;;;2.10;;
79330;SDS011;68797;49.782;19.054;2023-04-15T08:50:22;3.63;;;2.08;;
79330;SDS011;68797;49.782;19.054;2023-04-15T08:52:54;2.88;;;2.08;;
79330;SDS011;68797;49.782;19.054;2023-04-15T08:55:22;3.03;;;1.90;;
79330;SDS011;68797;49.782;19.054;2023-04-15T08:57:52;2.72;;;1.92;;
79330;SDS011;68797;49.782;19.054;2023-04-15T09:00:20;3.40;;;1.92;;
79330;SDS011;68797;49.782;19.054;2023-04-15T09:02:49;2.83;;;2.00;;
79330;SDS011;68797;49.782;19.054;2023-04-15T09:05:17;4.57;;;2.20;;
79330;SDS011;68797;49.782;19.054;2023-04-15T09:07:45;4.47;;;2.35;;
79330;SDS011;68797;49.782;19.054;2023-04-15T09:10:13;3.85;;;2.05;;
79330;SDS011;68797;49.782;19.054;2023-04-15T09:12:41;2.83;;;2.10;;
79330;SDS011;68797;49.782;19.054;2023-04-15T09:15:12;4.30;;;2.50;;
79330;SDS011;68797;49.782;19.054;2023-04-15T09:17:42;3.05;;;2.05;;
79330;SDS011;68797;49.782;19.054;2023-04-15T09:20:12;4.28;;;2.17;;
79330;SDS011;68797;49.782;19.054;2023-04-15T09:22:46;3.10;;;2.08;;
79330;SDS011;68797;49.782;19.054;2023-04-15T09:27:48;2.95;;;2.45;;
79330;SDS011;68797;49.782;19.054;2023-04-15T09:30:17;5.35;;;2.72;;
79330;SDS011;68797;49.782;19.054;2023-04-15T09:32:49;3.78;;;2.30;;
79330;SDS011;68797;49.782;19.054;2023-04-15T12:11:11;2.28;;;1.98;;
79330;SDS011;68797;49.782;19.054;2023-04-15T12:13:45;2.70;;;2.17;;
79330;SDS011;68797;49.782;19.054;2023-04-15T12:16:20;2.13;;;1.75;;
79330;SDS011;68797;49.782;19.054;2023-04-15T12:18:56;2.80;;;2.38;;
79330;SDS011;68797;49.782;19.054;2023-04-15T12:21:25;4.38;;;2.83;;
79330;SDS011;68797;49.782;19.054;2023-04-15T12:23:54;5.00;;;3.08;;
79330;SDS011;68797;49.782;19.054;2023-04-15T12:26:35;7.95;;;3.20;;
79330;SDS011;68797;49.782;19.054;2023-04-15T12:29:16;5.10;;;3.03;;
79330;SDS011;68797;49.782;19.054;2023-04-15T12:31:55;4.72;;;3.15;;
79330;SDS011;68797;49.782;19.054;2023-04-15T12:34:52;5.18;;;3.42;;
79330;SDS011;68797;49.782;19.054;2023-04-15T12:37:21;5.55;;;3.30;;
79330;SDS011;68797;49.782;19.054;2023-04-15T12:39:50;4.55;;;2.78;;
79330;SDS011;68797;49.782;19.054;2023-04-15T12:42:17;5.70;;;2.85;;
79330;SDS011;68797;49.782;19.054;2023-04-15T12:47:13;4.72;;;3.60;;
79330;SDS011;68797;49.782;19.054;2023-04-15T12:49:41;4.13;;;2.75;;
79330;SDS011;68797;49.782;19.054;2023-04-15T12:52:07;4.72;;;2.90;;
79330;SDS011;68797;49.782;19.054;2023-04-15T12:54:34;5.10;;;3.47;;
79330;SDS011;68797;49.782;19.054;2023-04-15T12:57:01;5.93;;;3.65;;
79330;SDS011;68797;49.782;19.054;2023-04-15T12:59:29;5.85;;;3.38;;
79330;SDS011;68797;49.782;19.054;2023-04-15T13:01:55;5.35;;;3.50;;
79330;SDS011;68797;49.782;19.054;2023-04-15T13:04:24;6.78;;;4.20;;
79330;SDS011;68797;49.782;19.054;2023-04-15T13:06:55;5.80;;;3.80;;
79330;SDS011;68797;49.782;19.054;2023-04-15T13:09:23;6.57;;;4.03;;
79330;SDS011;68797;49.782;19.054;2023-04-15T13:11:49;5.32;;;3.28;;
79330;SDS011;68797;49.782;19.054;2023-04-15T13:14:16;6.00;;;3.65;;
79330;SDS011;68797;49.782;19.054;2023-04-15T13:16:44;8.20;;;3.10;;
79330;SDS011;68797;49.782;19.054;2023-04-15T13:19:12;5.30;;;3.03;;
79330;SDS011;68797;49.782;19.054;2023-04-15T13:21:40;6.70;;;3.60;;
79330;SDS011;68797;49.782;19.054;2023-04-15T13:24:07;5.47;;;3.50;;
79330;SDS011;68797;49.782;19.054;2023-04-15T13:26:35;8.40;;;3.45;;
79330;SDS011;68797;49.782;19.054;2023-04-15T13:29:04;5.00;;;3.42;;
79330;SDS011;68797;49.782;19.054;2023-04-15T13:31:33;4.97;;;3.45;;
79330;SDS011;68797;49.782;19.054;2023-04-15T13:34:00;6.20;;;3.58;;
79330;SDS011;68797;49.782;19.054;2023-04-15T13:36:27;5.70;;;3.13;;
79330;SDS011;68797;49.782;19.054;2023-04-15T13:41:21;6.07;;;2.97;;
79330;SDS011;68797;49.782;19.054;2023-04-15T13:43:48;5.30;;;2.83;;
79330;SDS011;68797;49.782;19.054;2023-04-15T13:46:14;5.40;;;3.00;;
79330;SDS011;68797;49.782;19.054;2023-04-15T13:48:45;4.97;;;3.08;;
79330;SDS011;68797;49.782;19.054;2023-04-15T13:51:12;5.53;;;3.17;;
79330;SDS011;68797;49.782;19.054;2023-04-15T13:53:42;5.20;;;3.05;;
79330;SDS011;68797;49.782;19.054;2023-04-15T13:56:12;7.07;;;4.40;;
79330;SDS011;68797;49.782;19.054;2023-04-15T13:58:42;6.68;;;4.38;;
79330;SDS011;68797;49.782;19.054;2023-04-15T14:01:08;5.43;;;3.42;;
79330;SDS011;68797;49.782;19.054;2023-04-15T14:03:35;6.68;;;3.08;;
79330;SDS011;68797;49.782;19.054;2023-04-15T14:06:01;6.18;;;3.72;;
79330;SDS011;68797;49.782;19.054;2023-04-15T14:08:28;8.88;;;4.90;;
79330;SDS011;68797;49.782;19.054;2023-04-15T14:10:55;8.35;;;4.10;;
79330;SDS011;68797;49.782;19.054;2023-04-15T14:13:23;7.05;;;4.00;;
79330;SDS011;68797;49.782;19.054;2023-04-15T14:15:50;5.20;;;4.28;;
79330;SDS011;68797;49.782;19.054;2023-04-15T14:18:17;5.80;;;3.58;;
79330;SDS011;68797;49.782;19.054;2023-04-15T14:20:44;5.72;;;3.80;;
79330;SDS011;68797;49.782;19.054;2023-04-15T14:23:10;7.70;;;3.97;;
79330;SDS011;68797;49.782;19.054;2023-04-15T14:25:40;5.82;;;3.97;;
79330;SDS011;68797;49.782;19.054;2023-04-15T14:28:46;12.55;;;4.22;;
79330;SDS011;68797;49.782;19.054;2023-04-15T14:31:14;6.57;;;4.00;;
79330;SDS011;68797;49.782;19.054;2023-04-15T14:33:41;7.75;;;4.63;;
79330;SDS011;68797;49.782;19.054;2023-04-15T14:36:10;8.35;;;4.32;;
79330;SDS011;68797;49.782;19.054;2023-04-15T14:38:36;10.88;;;4.57;;
79330;SDS011;68797;49.782;19.054;2023-04-15T14:41:05;8.95;;;4.22;;
79330;SDS011;68797;49.782;19.054;2023-04-15T14:43:36;10.45;;;4.60;;
79330;SDS011;68797;49.782;19.054;2023-04-15T14:46:04;6.30;;;3.33;;
79330;SDS011;68797;49.782;19.054;2023-04-15T14:48:32;7.65;;;3.92;;
79330;SDS011;68797;49.782;19.054;2023-04-15T14:50:59;5.75;;;3.35;;
79330;SDS011;68797;49.782;19.054;2023-04-15T14:53:25;5.38;;;3.05;;
79330;SDS011;68797;49.782;19.054;2023-04-15T14:55:52;3.75;;;3.05;;
79330;SDS011;68797;49.782;19.054;2023-04-15T14:58:19;6.38;;;3.45;;
79330;SDS011;68797;49.782;19.054;2023-04-15T15:00:46;3.92;;;3.20;;
79330;SDS011;68797;49.782;19.054;2023-04-15T15:03:14;4.50;;;2.70;;
79330;SDS011;68797;49.782;19.054;2023-04-15T15:05:41;5.60;;;3.15;;
79330;SDS011;68797;49.782;19.054;2023-04-15T15:08:10;5.95;;;3.28;;
79330;SDS011;68797;49.782;19.054;2023-04-15T15:10:39;9.32;;;4.65;;
79330;SDS011;68797;49.782;19.054;2023-04-15T15:13:06;8.95;;;4.13;;
79330;SDS011;68797;49.782;19.054;2023-04-15T15:15:36;6.72;;;4.65;;
79330;SDS011;68797;49.782;19.054;2023-04-15T15:18:04;9.15;;;5.03;;
79330;SDS011;68797;49.782;19.054;2023-04-15T15:20:31;13.00;;;5.50;;
79330;SDS011;68797;49.782;19.054;2023-04-15T15:23:01;7.88;;;4.40;;
79330;SDS011;68797;49.782;19.054;2023-04-15T15:25:28;6.30;;;3.95;;
79330;SDS011;68797;49.782;19.054;2023-04-15T15:27:56;10.38;;;4.78;;
79330;SDS011;68797;49.782;19.054;2023-04-15T15:30:23;7.18;;;3.95;;
79330;SDS011;68797;49.782;19.054;2023-04-15T15:32:49;6.00;;;4.28;;
79330;SDS011;68797;49.782;19.054;2023-04-15T15:35:17;6.90;;;4.10;;
79330;SDS011;68797;49.782;19.054;2023-04-15T15:37:44;7.53;;;4.65;;
79330;SDS011;68797;49.782;19.054;2023-04-15T15:40:11;9.73;;;5.45;;
79330;SDS011;68797;49.782;19.054;2023-04-15T15:42:39;9.98;;;5.38;;
79330;SDS011;68797;49.782;19.054;2023-04-15T15:45:06;7.75;;;4.07;;
79330;SDS011;68797;49.782;19.054;2023-04-15T15:47:33;8.63;;;4.40;;
79330;SDS011;68797;49.782;19.054;2023-04-15T15:50:00;8.20;;;5.47;;
79330;SDS011;68797;49.782;19.054;2023-04-15T15:52:27;8.90;;;5.43;;
79330;SDS011;68797;49.782;19.054;2023-04-15T15:54:56;8.43;;;5.45;;
79330;SDS011;68797;49.782;19.054;2023-04-15T15:57:23;8.65;;;5.45;;
79330;SDS011;68797;49.782;19.054;2023-04-15T16:02:16;7.20;;;4.95;;
79330;SDS011;68797;49.782;19.054;2023-04-15T16:04:43;9.70;;;4.90;;
79330;SDS011;68797;49.782;19.054;2023-04-15T16:07:10;9.68;;;5.30;;
79330;SDS011;68797;49.782;19.054;2023-04-15T16:12:06;13.55;;;7.18;;
79330;SDS011;68797;49.782;19.054;2023-04-15T16:14:33;16.52;;;9.93;;
79330;SDS011;68797;49.782;19.054;2023-04-15T16:17:00;10.20;;;6.43;;
79330;SDS011;68797;49.782;19.054;2023-04-15T16:19:26;11.98;;;7.53;;
79330;SDS011;68797;49.782;19.054;2023-04-15T16:21:56;8.82;;;5.95;;
79330;SDS011;68797;49.782;19.054;2023-04-15T16:24:25;25.80;;;16.73;;
79330;SDS011;68797;49.782;19.054;2023-04-15T16:26:52;26.75;;;17.38;;
79330;SDS011;68797;49.782;19.054;2023-04-15T16:29:19;12.15;;;6.97;;
79330;SDS011;68797;49.782;19.054;2023-04-15T16:31:46;10.88;;;6.45;;
79330;SDS011;68797;49.782;19.054;2023-04-15T16:34:13;11.55;;;5.32;;
79330;SDS011;68797;49.782;19.054;2023-04-15T16:36:41;6.18;;;4.10;;
79330;SDS011;68797;49.782;19.054;2023-04-15T16:39:08;8.30;;;4.82;;
79330;SDS011;68797;49.782;19.054;2023-04-15T16:41:34;7.95;;;5.13;;
79330;SDS011;68797;49.782;19.054;2023-04-15T16:44:02;8.40;;;5.40;;
79330;SDS011;68797;49.782;19.054;2023-04-15T16:46:29;12.27;;;6.95;;
79330;SDS011;68797;49.782;19.054;2023-04-15T16:48:57;15.30;;;7.68;;
79330;SDS011;68797;49.782;19.054;2023-04-15T16:51:23;17.02;;;8.48;;
79330;SDS011;68797;49.782;19.054;2023-04-15T16:53:53;18.38;;;9.05;;
79330;SDS011;68797;49.782;19.054;2023-04-15T16:56:20;23.75;;;9.68;;
79330;SDS011;68797;49.782;19.054;2023-04-15T16:58:48;19.85;;;10.23;;
79330;SDS011;68797;49.782;19.054;2023-04-15T17:01:16;22.65;;;10.43;;
79330;SDS011;68797;49.782;19.054;2023-04-15T17:03:43;18.80;;;8.55;;
79330;SDS011;68797;49.782;19.054;2023-04-15T17:06:11;13.40;;;8.23;;
79330;SDS011;68797;49.782;19.054;2023-04-15T17:08:39;15.88;;;7.18;;
79330;SDS011;68797;49.782;19.054;2023-04-15T17:11:05;11.85;;;5.88;;
79330;SDS011;68797;49.782;19.054;2023-04-15T17:13:32;16.13;;;8.13;;
79330;SDS011;68797;49.782;19.054;2023-04-15T20:23:35;17.40;;;8.00;;
79330;SDS011;68797;49.782;19.054;2023-04-15T20:26:03;15.90;;;8.50;;
79330;SDS011;68797;49.782;19.054;2023-04-15T20:28:30;15.38;;;8.23;;
79330;SDS011;68797;49.782;19.054;2023-04-15T20:36:17;16.48;;;7.75;;
79330;SDS011;68797;49.782;19.054;2023-04-15T20:38:43;14.80;;;7.38;;
79330;SDS011;68797;49.782;19.054;2023-04-15T20:41:10;36.58;;;16.10;;
79330;SDS011;68797;49.782;19.054;2023-04-15T20:43:38;34.92;;;15.45;;
79330;SDS011;68797;49.782;19.054;2023-04-15T20:46:04;17.95;;;8.50;;
79330;SDS011;68797;49.782;19.054;2023-04-15T20:48:31;13.32;;;6.45;;
79330;SDS011;68797;49.782;19.054;2023-04-15T20:50:59;25.33;;;13.27;;
79330;SDS011;68797;49.782;19.054;2023-04-15T20:53:27;27.92;;;13.60;;